Time;durP1;ratioP1;P1;durP2;ratioP2;P2;SDS_P1;SDS_P2;PMS_P1;PMS_P2;Temp;Humidity;BMP_temperature;BMP_pressure;BME280_temperature;BME280_humidity;BME280_pressure;Samples;Min_cycle;Max_cycle;Signal;HPM_P1;HPM_P2
2023/05/26 00:00:18;;;;;;;18.65;8.63;;;11.40;99.90;;;;;;5068185;28;20366;-71
2023/05/26 00:02:45;;;;;;;17.58;7.78;;;11.50;99.90;;;;;;5067114;28;20135;-71
2023/05/26 00:05:13;;;;;;;19.27;8.07;;;11.50;99.90;;;;;;5068508;28;20444;-71
2023/05/26 00:07:41;;;;;;;16.77;8.57;;;11.40;99.90;;;;;;5067844;28;20063;-71
2023/05/26 00:10:08;;;;;;;15.57;8.23;;;11.30;99.90;;;;;;5068051;28;20082;-71
2023/05/26 00:12:34;;;;;;;21.77;8.88;;;11.30;99.90;;;;;;5066786;28;20484;-71
2023/05/26 00:15:00;;;;;;;17.55;8.35;;;11.30;99.90;;;;;;5067205;28;20036;-71
2023/05/26 00:17:26;;;;;;;18.52;8.25;;;11.40;99.90;;;;;;5068116;28;20476;-71
2023/05/26 00:19:52;;;;;;;16.85;8.10;;;11.30;99.90;;;;;;5067288;28;20075;-71
2023/05/26 00:22:19;;;;;;;17.55;9.10;;;11.20;99.90;;;;;;5068134;28;20457;-70
2023/05/26 00:24:46;;;;;;;19.75;8.77;;;11.10;99.90;;;;;;5066939;28;20472;-71
2023/05/26 00:27:12;;;;;;;21.70;8.57;;;11.10;99.90;;;;;;5067977;28;20048;-71
2023/05/26 00:29:38;;;;;;;16.48;8.10;;;11.20;99.90;;;;;;5067880;28;20037;-71
2023/05/26 00:32:04;;;;;;;18.00;8.30;;;11.10;99.90;;;;;;5067175;28;20036;-71
2023/05/26 00:34:30;;;;;;;19.23;8.20;;;11.00;99.90;;;;;;5066428;28;20389;-71
2023/05/26 00:36:55;;;;;;;16.25;8.32;;;11.00;99.90;;;;;;5066665;28;20037;-71
2023/05/26 00:39:21;;;;;;;17.88;8.20;;;11.00;99.90;;;;;;5071345;28;20115;-71
2023/05/26 00:41:48;;;;;;;20.15;8.45;;;11.00;99.90;;;;;;5070373;28;20101;-71
2023/05/26 00:44:13;;;;;;;17.85;8.95;;;11.00;99.90;;;;;;5071426;28;20040;-71
2023/05/26 00:46:40;;;;;;;17.73;9.20;;;11.00;99.90;;;;;;5071437;28;20077;-71
2023/05/26 00:49:05;;;;;;;19.42;9.15;;;11.00;99.90;;;;;;5070589;28;20025;-70
2023/05/26 00:51:32;;;;;;;18.60;8.43;;;11.00;99.90;;;;;;5071067;28;20033;-71
2023/05/26 00:53:59;;;;;;;20.27;8.95;;;10.90;99.90;;;;;;5068898;28;20037;-71
2023/05/26 00:56:27;;;;;;;20.85;8.65;;;10.90;99.90;;;;;;5071288;28;20025;-71
2023/05/26 00:58:54;;;;;;;16.95;8.50;;;10.80;99.90;;;;;;5070403;28;20032;-71
2023/05/26 01:01:19;;;;;;;16.15;8.18;;;10.70;99.90;;;;;;5071080;28;20037;-71
2023/05/26 01:03:46;;;;;;;19.17;9.63;;;10.60;99.90;;;;;;5070602;28;20106;-71
2023/05/26 01:06:11;;;;;;;19.60;9.07;;;10.50;99.90;;;;;;5071085;28;20021;-71
2023/05/26 01:08:37;;;;;;;21.80;9.82;;;10.50;99.90;;;;;;5071029;28;20467;-71
2023/05/26 01:11:08;;;;;;;19.42;9.98;;;10.50;99.90;;;;;;5070114;28;20142;-71
2023/05/26 01:13:51;;;;;;;20.88;9.27;;;10.40;99.90;;;;;;5070901;28;20075;-71
2023/05/26 01:16:22;;;;;;;18.85;9.25;;;10.40;99.90;;;;;;5069422;28;20507;-71
2023/05/26 01:19:00;;;;;;;20.38;9.38;;;10.40;99.90;;;;;;5070069;28;20032;-71
2023/05/26 01:21:29;;;;;;;21.80;9.98;;;10.50;99.90;;;;;;5070789;28;20028;-71
2023/05/26 01:23:56;;;;;;;23.13;10.77;;;10.40;99.90;;;;;;5069929;28;20031;-71
2023/05/26 01:27:00;;;;;;;19.45;9.35;;;10.40;99.90;;;;;;5070697;28;20055;-71
2023/05/26 01:29:29;;;;;;;19.40;9.98;;;10.50;99.90;;;;;;5069180;28;20455;-71
2023/05/26 01:32:05;;;;;;;25.77;10.48;;;10.50;99.90;;;;;;5069644;28;20033;-71
2023/05/26 01:34:30;;;;;;;22.80;9.80;;;10.50;99.90;;;;;;5069104;28;20028;-71
2023/05/26 01:36:56;;;;;;;18.98;9.88;;;10.50;99.90;;;;;;5069685;28;20028;-71
2023/05/26 01:39:22;;;;;;;19.88;9.15;;;10.50;99.90;;;;;;5070440;28;20021;-71
2023/05/26 01:42:06;;;;;;;19.65;9.35;;;10.50;99.90;;;;;;5069542;28;20028;-71
2023/05/26 01:44:34;;;;;;;21.25;9.30;;;10.40;99.90;;;;;;5070735;28;20128;-71
2023/05/26 01:47:01;;;;;;;18.83;9.50;;;10.30;99.90;;;;;;5069274;28;20024;-71
2023/05/26 01:49:31;;;;;;;23.08;10.15;;;10.30;99.90;;;;;;5069445;28;20078;-71
2023/05/26 01:52:01;;;;;;;24.17;11.80;;;10.30;99.90;;;;;;5069392;28;20078;-71
2023/05/26 01:54:35;;;;;;;20.60;9.37;;;10.30;99.90;;;;;;5070072;28;20035;-71
2023/05/26 01:57:02;;;;;;;23.85;8.77;;;10.20;99.90;;;;;;5067895;28;20503;-71
2023/05/26 01:59:30;;;;;;;19.67;8.73;;;10.10;99.90;;;;;;5069999;28;20427;-71
2023/05/26 02:01:55;;;;;;;18.15;9.65;;;9.90;99.90;;;;;;5069044;28;20495;-71
2023/05/26 02:04:21;;;;;;;22.55;9.60;;;9.80;99.90;;;;;;5069751;28;20032;-71
2023/05/26 02:06:47;;;;;;;19.00;9.13;;;9.80;99.90;;;;;;5069412;28;20032;-71
2023/05/26 02:09:12;;;;;;;20.42;9.35;;;9.80;99.90;;;;;;5069088;28;20032;-71
2023/05/26 02:11:38;;;;;;;22.90;9.60;;;9.80;99.90;;;;;;5068425;28;20091;-71
2023/05/26 02:14:04;;;;;;;21.23;9.80;;;9.80;99.90;;;;;;5068896;28;20082;-71
2023/05/26 02:16:32;;;;;;;18.63;9.88;;;9.80;99.90;;;;;;5069360;28;20653;-71
2023/05/26 02:18:58;;;;;;;20.17;9.35;;;9.90;99.90;;;;;;5068801;28;20036;-71
2023/05/26 02:21:23;;;;;;;28.10;10.70;;;9.90;99.90;;;;;;5069440;28;20021;-71
2023/05/26 02:23:49;;;;;;;24.35;10.00;;;9.90;99.90;;;;;;5068811;28;20035;-71
2023/05/26 02:26:15;;;;;;;19.90;10.00;;;9.90;99.90;;;;;;5069315;28;20024;-71
2023/05/26 02:28:41;;;;;;;23.73;10.45;;;9.90;99.90;;;;;;5069310;28;20397;-71
2023/05/26 02:31:07;;;;;;;20.83;10.23;;;9.90;99.90;;;;;;5067033;28;20028;-71
2023/05/26 02:33:32;;;;;;;22.80;10.00;;;10.00;99.90;;;;;;5067869;28;20048;-71
2023/05/26 02:35:58;;;;;;;19.80;9.75;;;10.00;99.90;;;;;;5068820;28;20039;-71
2023/05/26 02:38:23;;;;;;;19.50;9.80;;;9.90;99.90;;;;;;5069254;28;20024;-71
2023/05/26 02:40:49;;;;;;;19.48;10.02;;;9.80;99.90;;;;;;5068836;28;20112;-71
2023/05/26 02:43:16;;;;;;;25.02;10.70;;;9.80;99.90;;;;;;5068750;28;20163;-71
2023/05/26 02:45:42;;;;;;;22.58;10.20;;;9.80;99.90;;;;;;5068973;28;20052;-71
2023/05/26 02:48:08;;;;;;;21.30;9.68;;;9.80;99.90;;;;;;5068429;28;20583;-71
2023/05/26 02:50:33;;;;;;;19.02;8.88;;;9.70;99.90;;;;;;5069168;28;20039;-71
2023/05/26 02:52:59;;;;;;;17.30;9.15;;;9.50;99.90;;;;;;5067824;28;20103;-72
2023/05/26 02:55:24;;;;;;;18.38;8.93;;;9.30;99.90;;;;;;5069048;28;20021;-71
2023/05/26 02:57:51;;;;;;;21.55;9.32;;;9.20;99.90;;;;;;5068613;28;20035;-71
2023/05/26 03:00:17;;;;;;;22.48;9.80;;;9.20;99.90;;;;;;5067084;28;20033;-71
2023/05/26 03:02:43;;;;;;;20.08;8.95;;;9.20;99.90;;;;;;5068434;28;20057;-71
2023/05/26 03:05:09;;;;;;;20.85;9.40;;;9.30;99.90;;;;;;5068056;28;20606;-71
2023/05/26 03:07:35;;;;;;;17.63;8.43;;;9.30;99.90;;;;;;5068904;28;20035;-71
2023/05/26 03:10:00;;;;;;;21.90;9.35;;;9.20;99.90;;;;;;5068333;28;20040;-71
2023/05/26 03:12:26;;;;;;;21.73;9.43;;;9.20;99.90;;;;;;5067375;28;20129;-71
2023/05/26 03:14:52;;;;;;;22.20;10.27;;;9.10;99.90;;;;;;5068233;28;20123;-71
2023/05/26 03:17:18;;;;;;;21.70;9.95;;;9.10;99.90;;;;;;5068816;28;20039;-71
2023/05/26 03:19:46;;;;;;;23.98;10.30;;;9.20;99.90;;;;;;5068764;28;20032;-71
2023/05/26 03:22:12;;;;;;;20.15;10.30;;;9.20;99.90;;;;;;5067890;28;20020;-71
2023/05/26 03:24:38;;;;;;;20.17;9.63;;;9.20;99.90;;;;;;5068617;28;20036;-71
2023/05/26 03:27:04;;;;;;;19.67;8.80;;;9.10;99.90;;;;;;5067530;28;20385;-71
2023/05/26 03:29:30;;;;;;;21.63;10.18;;;9.10;99.90;;;;;;5068525;28;20349;-71
2023/05/26 03:31:56;;;;;;;23.17;9.52;;;9.10;99.90;;;;;;5067788;28;20044;-71
2023/05/26 03:34:24;;;;;;;19.98;9.38;;;9.10;99.90;;;;;;5068537;28;20028;-71
2023/05/26 03:36:49;;;;;;;20.27;9.38;;;9.10;99.90;;;;;;5068414;28;20032;-71
2023/05/26 03:39:16;;;;;;;23.92;10.98;;;9.10;99.90;;;;;;5067778;28;20682;-71
2023/05/26 03:41:41;;;;;;;21.08;9.27;;;9.10;99.90;;;;;;5068815;28;20036;-71
2023/05/26 03:44:08;;;;;;;20.42;9.90;;;9.10;99.90;;;;;;5067801;28;20036;-71
2023/05/26 03:46:33;;;;;;;19.48;9.48;;;9.10;99.90;;;;;;5068513;28;20372;-71
2023/05/26 03:48:59;;;;;;;21.65;10.38;;;9.10;99.90;;;;;;5067579;28;20103;-71
2023/05/26 03:51:25;;;;;;;20.25;9.88;;;9.10;99.90;;;;;;5068405;28;20563;-71
2023/05/26 03:53:51;;;;;;;18.88;9.65;;;9.10;99.90;;;;;;5068249;28;20036;-71
2023/05/26 03:56:17;;;;;;;20.60;9.63;;;8.90;99.90;;;;;;5066267;28;20032;-71
2023/05/26 03:58:42;;;;;;;19.98;9.45;;;8.90;99.90;;;;;;5068397;28;20644;-71
2023/05/26 04:01:09;;;;;;;19.90;9.23;;;8.80;99.90;;;;;;5067458;28;20377;-71
2023/05/26 04:03:34;;;;;;;23.50;9.68;;;8.80;99.90;;;;;;5068401;28;20419;-71
2023/05/26 04:06:00;;;;;;;18.35;9.13;;;8.80;99.90;;;;;;5067470;28;20043;-71
2023/05/26 04:08:27;;;;;;;19.77;9.95;;;8.90;99.90;;;;;;5066808;28;20082;-71
2023/05/26 04:10:53;;;;;;;19.92;9.55;;;9.00;99.90;;;;;;5068231;28;20051;-71
2023/05/26 04:13:18;;;;;;;23.75;10.88;;;9.00;99.90;;;;;;5070460;28;20114;-71
2023/05/26 04:15:44;;;;;;;24.45;10.82;;;9.00;99.90;;;;;;5071807;28;20033;-71
2023/05/26 04:18:10;;;;;;;22.00;9.98;;;9.10;99.90;;;;;;5069702;28;20054;-71
2023/05/26 04:20:36;;;;;;;24.30;10.90;;;9.20;99.90;;;;;;5072013;28;20036;-71
2023/05/26 04:23:01;;;;;;;21.75;10.57;;;9.20;99.90;;;;;;5071308;28;20029;-71
2023/05/26 04:25:27;;;;;;;23.42;11.38;;;9.20;99.90;;;;;;5070433;28;20024;-71
2023/05/26 04:27:56;;;;;;;27.23;10.63;;;9.30;99.90;;;;;;5071793;28;20423;-71
2023/05/26 04:30:22;;;;;;;24.60;10.70;;;9.40;99.90;;;;;;5071604;28;20037;-71
2023/05/26 04:32:48;;;;;;;18.92;9.80;;;9.50;99.90;;;;;;5070260;28;20033;-71
2023/05/26 04:35:14;;;;;;;25.92;9.77;;;9.60;99.90;;;;;;5070836;28;20115;-71
2023/05/26 04:37:40;;;;;;;24.58;10.65;;;9.70;99.90;;;;;;5071672;28;20021;-71
2023/05/26 04:40:09;;;;;;;21.88;10.20;;;9.80;99.90;;;;;;5069419;28;20024;-71
2023/05/26 04:42:36;;;;;;;19.52;10.05;;;10.00;99.90;;;;;;5071315;28;20480;-71
2023/05/26 04:45:05;;;;;;;20.80;10.77;;;10.20;99.90;;;;;;5070679;28;20539;-71
2023/05/26 04:47:34;;;;;;;20.52;9.82;;;10.40;99.90;;;;;;5071509;28;20028;-71
2023/05/26 04:50:01;;;;;;;18.67;9.63;;;10.60;99.90;;;;;;5069154;28;20069;-71
2023/05/26 04:52:27;;;;;;;16.63;8.82;;;10.60;99.90;;;;;;5071302;28;20036;-71
2023/05/26 04:54:53;;;;;;;20.77;9.80;;;10.60;99.90;;;;;;5071347;28;20089;-71
2023/05/26 04:57:19;;;;;;;19.17;9.18;;;10.70;99.90;;;;;;5070532;28;20040;-71
2023/05/26 04:59:46;;;;;;;17.63;9.02;;;10.90;99.90;;;;;;5069814;28;20029;-71
2023/05/26 05:02:12;;;;;;;20.13;9.07;;;10.70;99.90;;;;;;5070168;28;20053;-71
2023/05/26 05:04:38;;;;;;;18.42;9.20;;;10.50;99.90;;;;;;5071199;28;20047;-71
2023/05/26 05:07:03;;;;;;;18.42;8.70;;;10.40;99.90;;;;;;5069996;28;20099;-71
2023/05/26 05:09:29;;;;;;;21.75;9.23;;;10.50;99.90;;;;;;5071120;28;20025;-71
2023/05/26 05:11:54;;;;;;;20.50;9.25;;;10.70;99.90;;;;;;5070976;28;20085;-71
2023/05/26 05:14:20;;;;;;;17.13;9.25;;;10.90;99.90;;;;;;5070203;28;20029;-70
2023/05/26 05:16:46;;;;;;;16.88;8.82;;;11.10;99.90;;;;;;5069484;28;20412;-71
2023/05/26 05:19:12;;;;;;;21.05;9.60;;;11.20;99.90;;;;;;5070155;28;20033;-71
2023/05/26 05:21:38;;;;;;;19.38;9.10;;;11.20;99.90;;;;;;5069416;28;20032;-73
2023/05/26 05:24:03;;;;;;;19.70;9.45;;;11.20;99.90;;;;;;5068726;28;20059;-71
2023/05/26 05:26:29;;;;;;;19.08;9.73;;;11.40;99.90;;;;;;5069304;28;20108;-71
2023/05/26 05:28:55;;;;;;;23.70;10.48;;;11.70;99.90;;;;;;5069306;28;20031;-71
2023/05/26 05:31:20;;;;;;;21.50;9.50;;;11.90;99.90;;;;;;5068346;28;20032;-71
2023/05/26 05:33:46;;;;;;;19.38;9.95;;;12.00;99.90;;;;;;5070627;28;20044;-71
2023/05/26 05:36:11;;;;;;;17.98;8.80;;;12.00;99.90;;;;;;5069676;28;20032;-71
2023/05/26 05:38:37;;;;;;;23.58;9.90;;;12.10;99.90;;;;;;5069186;28;20035;-71
2023/05/26 05:41:03;;;;;;;24.10;11.25;;;12.10;99.90;;;;;;5069788;28;20119;-71
2023/05/26 05:43:28;;;;;;;27.85;10.48;;;12.30;99.90;;;;;;5070411;28;20376;-71
2023/05/26 05:45:54;;;;;;;27.05;11.00;;;12.60;99.90;;;;;;5070446;28;20024;-71
2023/05/26 05:48:20;;;;;;;22.08;10.73;;;12.80;99.90;;;;;;5069428;28;20677;-72
2023/05/26 05:50:46;;;;;;;20.63;10.65;;;13.10;99.90;;;;;;5069080;28;20063;-73
2023/05/26 05:53:12;;;;;;;24.55;11.35;;;13.30;99.90;;;;;;5069296;28;20423;-71
2023/05/26 05:55:37;;;;;;;24.02;11.23;;;13.50;99.90;;;;;;5070298;28;20028;-71
2023/05/26 05:58:03;;;;;;;25.60;10.88;;;13.60;99.90;;;;;;5067931;28;20059;-72
2023/05/26 06:00:29;;;;;;;20.13;10.45;;;13.80;99.90;;;;;;5068530;28;20029;-72
2023/05/26 06:02:55;;;;;;;24.33;10.27;;;14.00;99.90;;;;;;5069739;28;20091;-71
2023/05/26 06:05:21;;;;;;;25.55;11.25;;;14.20;99.90;;;;;;5069150;28;20506;-72
2023/05/26 06:07:46;;;;;;;24.38;10.30;;;14.20;99.90;;;;;;5068639;28;20025;-71
2023/05/26 06:10:12;;;;;;;25.35;10.50;;;14.40;99.90;;;;;;5067317;28;20036;-72
2023/05/26 06:12:38;;;;;;;23.52;10.18;;;14.50;99.90;;;;;;5069947;28;20085;-72
2023/05/26 06:15:04;;;;;;;21.52;10.48;;;14.60;99.90;;;;;;5069155;28;20036;-72
2023/05/26 06:17:29;;;;;;;23.85;10.60;;;14.70;99.90;;;;;;5069811;28;20033;-72
2023/05/26 06:19:55;;;;;;;23.80;10.27;;;14.70;99.90;;;;;;5069961;28;20031;-71
2023/05/26 06:22:20;;;;;;;18.45;9.98;;;14.80;99.90;;;;;;5068851;28;20025;-72
2023/05/26 06:24:46;;;;;;;23.73;10.20;;;15.00;99.90;;;;;;5069589;28;20647;-71
2023/05/26 06:27:12;;;;;;;24.60;9.90;;;15.20;99.90;;;;;;5068757;28;20563;-72
2023/05/26 06:29:37;;;;;;;26.33;10.18;;;15.30;99.90;;;;;;5069392;28;20028;-71
2023/05/26 06:32:03;;;;;;;25.17;10.05;;;15.40;99.90;;;;;;5069328;28;20045;-71
2023/05/26 06:34:29;;;;;;;22.85;9.27;;;15.40;99.90;;;;;;5067202;28;20466;-71
2023/05/26 06:36:55;;;;;;;19.77;9.27;;;15.40;99.90;;;;;;5069393;28;20797;-71
2023/05/26 06:39:23;;;;;;;22.52;10.05;;;15.40;99.90;;;;;;5068618;28;20082;-71
2023/05/26 06:41:49;;;;;;;24.65;10.02;;;15.50;99.90;;;;;;5069329;28;20020;-71
2023/05/26 06:44:15;;;;;;;21.40;9.65;;;15.60;99.90;;;;;;5068540;28;20055;-71
2023/05/26 06:46:40;;;;;;;24.77;9.98;;;15.70;99.90;;;;;;5069237;28;20464;-71
2023/05/26 06:49:06;;;;;;;21.08;9.60;;;15.80;99.90;;;;;;5068461;28;20021;-71
2023/05/26 06:51:32;;;;;;;21.17;9.10;;;15.90;99.90;;;;;;5069224;28;20106;-71
2023/05/26 06:53:57;;;;;;;21.02;8.77;;;16.00;99.90;;;;;;5067635;28;20040;-71
2023/05/26 06:56:23;;;;;;;27.15;9.43;;;16.00;99.90;;;;;;5066955;28;20033;-71
2023/05/26 06:58:49;;;;;;;23.10;9.60;;;16.10;99.90;;;;;;5069120;28;20074;-71
2023/05/26 07:01:15;;;;;;;18.25;8.50;;;16.00;99.90;;;;;;5067781;28;20035;-71
2023/05/26 07:03:40;;;;;;;27.23;10.10;;;16.20;99.90;;;;;;5068973;28;20088;-71
2023/05/26 07:06:06;;;;;;;19.80;9.30;;;16.30;99.90;;;;;;5068380;28;20436;-71
2023/05/26 07:08:32;;;;;;;19.58;9.20;;;16.40;99.90;;;;;;5069009;28;20037;-71
2023/05/26 07:10:57;;;;;;;23.05;9.70;;;16.50;99.90;;;;;;5068812;28;20039;-70
2023/05/26 07:13:23;;;;;;;26.23;9.48;;;16.50;99.90;;;;;;5068010;28;20036;-71
2023/05/26 07:15:49;;;;;;;20.25;9.60;;;16.50;99.90;;;;;;5068912;28;20138;-71
2023/05/26 07:18:14;;;;;;;23.25;9.50;;;16.70;99.90;;;;;;5068099;28;20098;-71
2023/05/26 07:20:40;;;;;;;18.92;9.60;;;16.90;99.90;;;;;;5068787;28;20024;-71
2023/05/26 07:23:06;;;;;;;30.08;10.23;;;17.10;99.90;;;;;;5068322;28;20035;-71
2023/05/26 07:25:31;;;;;;;22.45;9.13;;;17.30;99.90;;;;;;5068612;28;20028;-71
2023/05/26 07:27:57;;;;;;;19.60;9.00;;;17.30;99.90;;;;;;5068739;28;20035;-71
2023/05/26 07:30:25;;;;;;;25.95;9.93;;;17.30;99.90;;;;;;5067827;28;20037;-71
2023/05/26 07:32:50;;;;;;;22.27;8.68;;;17.30;99.90;;;;;;5068873;28;20032;-71
2023/05/26 07:35:16;;;;;;;17.08;9.05;;;17.30;99.90;;;;;;5067878;28;20039;-72
2023/05/26 07:37:42;;;;;;;17.58;8.88;;;17.50;99.90;;;;;;5068582;28;20070;-71
2023/05/26 07:40:08;;;;;;;18.55;9.32;;;17.60;99.90;;;;;;5068077;28;20035;-72
2023/05/26 07:42:34;;;;;;;23.42;9.70;;;17.50;99.90;;;;;;5068555;28;20041;-72
2023/05/26 07:45:01;;;;;;;21.88;9.77;;;17.70;99.90;;;;;;5068506;28;20112;-71
2023/05/26 07:47:31;;;;;;;20.02;9.73;;;17.60;99.90;;;;;;5069550;28;20124;-71
2023/05/26 07:49:59;;;;;;;19.63;9.93;;;17.60;99.90;;;;;;5072549;28;20036;-72
2023/05/26 07:52:25;;;;;;;24.77;9.95;;;17.70;99.90;;;;;;5070396;28;20562;-72
2023/05/26 07:54:51;;;;;;;18.40;9.57;;;17.70;99.90;;;;;;5071055;28;20040;-71
2023/05/26 07:57:17;;;;;;;17.08;9.30;;;17.90;99.90;;;;;;5071742;28;20032;-72
2023/05/26 07:59:43;;;;;;;20.67;9.18;;;18.10;99.90;;;;;;5072648;28;20773;-72
2023/05/26 08:02:10;;;;;;;19.65;9.38;;;18.40;99.90;;;;;;5070183;28;20079;-72
2023/05/26 08:04:36;;;;;;;19.63;9.52;;;18.50;99.90;;;;;;5070985;28;20074;-72
2023/05/26 08:07:02;;;;;;;20.02;9.23;;;18.60;99.90;;;;;;5070933;28;20397;-72
2023/05/26 08:09:28;;;;;;;14.60;8.77;;;18.70;99.90;;;;;;5071734;28;20028;-72
2023/05/26 08:11:53;;;;;;;18.23;9.27;;;18.80;99.90;;;;;;5072222;28;20032;-72
2023/05/26 08:14:20;;;;;;;19.02;9.00;;;18.90;99.90;;;;;;5071237;28;20037;-71
2023/05/26 08:16:46;;;;;;;16.45;8.45;;;18.80;99.90;;;;;;5072056;28;20028;-72
2023/05/26 08:19:11;;;;;;;19.25;10.20;;;19.00;99.90;;;;;;5071188;28;20039;-72
2023/05/26 08:21:37;;;;;;;20.38;10.20;;;19.10;99.90;;;;;;5071735;28;20032;-72
2023/05/26 08:24:03;;;;;;;22.80;9.02;;;19.30;99.90;;;;;;5070563;28;20036;-72
2023/05/26 08:26:28;;;;;;;19.90;8.50;;;19.40;99.90;;;;;;5071095;28;20028;-72
2023/05/26 08:28:54;;;;;;;20.63;9.20;;;19.50;99.90;;;;;;5071525;28;20131;-71
2023/05/26 08:31:20;;;;;;;17.40;9.20;;;19.70;99.90;;;;;;5070663;28;20028;-72
2023/05/26 08:33:46;;;;;;;20.52;9.57;;;19.90;99.90;;;;;;5071703;28;20032;-71
2023/05/26 08:36:11;;;;;;;21.52;9.23;;;19.90;99.90;;;;;;5071099;28;20509;-72
2023/05/26 08:38:37;;;;;;;18.13;9.80;;;19.90;99.90;;;;;;5071908;28;20036;-72
2023/05/26 08:41:05;;;;;;;16.40;8.90;;;19.90;99.90;;;;;;5071655;28;20064;-72
2023/05/26 08:43:54;;;;;;;19.75;9.10;;;20.10;99.90;;;;;;5070809;28;20055;-72
2023/05/26 08:46:22;;;;;;;17.05;9.02;;;20.20;99.90;;;;;;5070719;28;20032;-72
2023/05/26 08:48:49;;;;;;;17.30;8.07;;;20.20;99.90;;;;;;5071381;28;20028;-72
2023/05/26 08:51:15;;;;;;;22.27;8.82;;;20.20;99.90;;;;;;5070730;28;20024;-72
2023/05/26 08:53:41;;;;;;;21.27;8.68;;;20.40;99.90;;;;;;5071260;28;20123;-71
2023/05/26 08:56:09;;;;;;;15.60;8.38;;;20.40;99.90;;;;;;5069924;28;20568;-72
2023/05/26 08:58:36;;;;;;;18.42;8.40;;;20.20;99.90;;;;;;5070572;28;20554;-72
2023/05/26 09:01:02;;;;;;;17.35;7.57;;;20.30;99.90;;;;;;5071306;28;20040;-72
2023/05/26 09:03:28;;;;;;;21.85;9.38;;;20.70;99.90;;;;;;5070096;28;20060;-72
2023/05/26 09:05:54;;;;;;;19.63;8.80;;;21.00;99.90;;;;;;5071257;28;20028;-72
2023/05/26 09:08:20;;;;;;;23.65;9.25;;;20.80;99.90;;;;;;5068828;28;20073;-72
2023/05/26 09:10:46;;;;;;;18.55;9.30;;;21.00;99.90;;;;;;5071108;28;20417;-72
2023/05/26 09:13:15;;;;;;;15.50;8.55;;;21.20;99.90;;;;;;5070682;28;20051;-72
2023/05/26 09:15:41;;;;;;;16.63;8.50;;;21.20;99.90;;;;;;5071117;28;20074;-72
2023/05/26 09:18:09;;;;;;;20.20;9.18;;;21.30;99.90;;;;;;5071254;28;20030;-72
2023/05/26 09:20:43;;;;;;;14.02;8.30;;;21.50;99.90;;;;;;5070225;28;20017;-72
2023/05/26 09:23:09;;;;;;;17.02;9.48;;;21.80;99.90;;;;;;5070714;28;20473;-72
2023/05/26 09:25:36;;;;;;;20.65;8.95;;;21.80;99.90;;;;;;5070110;28;20123;-72
2023/05/26 09:28:07;;;;;;;21.15;9.10;;;21.70;99.90;;;;;;5070783;28;20029;-72
2023/05/26 09:30:39;;;;;;;17.15;8.65;;;22.00;99.90;;;;;;5069789;28;20123;-72
2023/05/26 09:33:11;;;;;;;22.98;8.98;;;22.10;99.90;;;;;;5069204;28;20029;-71
2023/05/26 09:35:41;;;;;;;17.75;8.75;;;22.20;99.90;;;;;;5068722;28;20050;-71
2023/05/26 09:38:14;;;;;;;18.15;8.77;;;22.10;99.90;;;;;;5069139;28;20120;-72
2023/05/26 09:40:47;;;;;;;18.88;8.50;;;22.10;99.90;;;;;;5070337;28;20028;-71
2023/05/26 09:43:17;;;;;;;22.35;8.13;;;22.20;99.90;;;;;;5070308;28;20042;-72
2023/05/26 09:45:43;;;;;;;20.05;8.52;;;22.20;99.90;;;;;;5070820;28;20036;-71
2023/05/26 09:48:09;;;;;;;18.80;8.52;;;22.10;99.20;;;;;;5070270;28;20461;-71
2023/05/26 09:50:37;;;;;;;15.20;8.27;;;22.00;99.90;;;;;;5069627;28;20225;-71
2023/05/26 09:53:09;;;;;;;14.52;7.47;;;22.30;99.90;;;;;;5070280;28;20059;-72
2023/05/26 09:55:36;;;;;;;15.93;7.55;;;22.80;99.90;;;;;;5069317;28;20697;-72
2023/05/26 09:58:07;;;;;;;18.23;8.38;;;23.10;98.60;;;;;;5070205;28;20024;-71
2023/05/26 10:00:35;;;;;;;24.10;8.80;;;23.00;98.60;;;;;;5069166;28;20032;-72
2023/05/26 10:03:04;;;;;;;19.00;8.23;;;23.00;96.40;;;;;;5069705;28;20482;-71
2023/05/26 10:05:36;;;;;;;22.05;8.00;;;22.90;96.50;;;;;;5069392;28;20032;-72
2023/05/26 10:08:05;;;;;;;24.65;8.98;;;23.40;97.40;;;;;;5069795;28;20032;-72
2023/05/26 10:10:31;;;;;;;15.70;7.30;;;23.60;97.50;;;;;;5068455;28;20036;-73
2023/05/26 10:12:57;;;;;;;16.10;8.10;;;23.60;97.20;;;;;;5069906;28;20036;-72
2023/05/26 10:15:23;;;;;;;18.88;8.38;;;23.80;96.10;;;;;;5067553;28;20397;-72
2023/05/26 10:17:49;;;;;;;15.35;8.10;;;23.50;96.80;;;;;;5069885;28;20029;-71
2023/05/26 10:20:15;;;;;;;16.48;7.90;;;23.50;98.90;;;;;;5069616;28;20087;-71
2023/05/26 10:22:48;;;;;;;15.63;7.82;;;23.40;96.30;;;;;;5069334;28;20115;-72
2023/05/26 10:25:20;;;;;;;17.73;7.60;;;23.60;99.60;;;;;;5069603;28;20028;-72
2023/05/26 10:28:19;;;;;;;21.77;7.65;;;24.00;97.60;;;;;;5069993;28;20035;-72
2023/05/26 10:30:45;;;;;;;16.13;8.43;;;24.20;96.30;;;;;;5069664;28;20028;-72
2023/05/26 10:33:15;;;;;;;18.25;7.97;;;24.20;93.60;;;;;;5069491;28;20472;-71
2023/05/26 10:35:58;;;;;;;17.67;7.85;;;24.50;97.40;;;;;;5068904;28;20032;-72
2023/05/26 10:38:37;;;;;;;14.77;7.80;;;24.60;94.80;;;;;;5068762;28;20040;-72
2023/05/26 10:41:08;;;;;;;18.83;7.75;;;25.00;94.00;;;;;;5067845;28;20028;-72
2023/05/26 10:43:33;;;;;;;17.63;8.48;;;24.90;92.10;;;;;;5068929;28;20090;-71
2023/05/26 10:46:01;;;;;;;18.40;8.20;;;24.60;94.30;;;;;;5067940;28;20024;-71
2023/05/26 10:48:58;;;;;;;14.82;8.25;;;24.30;94.40;;;;;;5068412;28;20028;-72
2023/05/26 10:51:33;;;;;;;17.23;8.43;;;24.40;94.30;;;;;;5068439;28;20103;-71
2023/05/26 10:54:14;;;;;;;15.02;7.75;;;24.10;92.60;;;;;;5069111;28;20088;-72
2023/05/26 10:56:43;;;;;;;24.13;9.32;;;24.30;95.50;;;;;;5068451;28;20267;-72
2023/05/26 10:59:35;;;;;;;16.40;8.65;;;24.70;96.70;;;;;;5069137;28;20037;-71
2023/05/26 11:02:05;;;;;;;16.92;7.80;;;24.90;96.10;;;;;;5068815;28;20053;-71
2023/05/26 11:04:45;;;;;;;16.33;8.48;;;25.00;96.40;;;;;;5068368;28;20036;-72
2023/05/26 11:07:19;;;;;;;18.52;8.35;;;25.20;93.00;;;;;;5069010;28;20548;-71
2023/05/26 11:10:08;;;;;;;18.95;7.63;;;25.30;93.60;;;;;;5068766;28;20107;-71
2023/05/26 11:12:48;;;;;;;16.90;8.07;;;25.70;94.00;;;;;;5068207;28;20032;-71
2023/05/26 11:15:30;;;;;;;15.07;8.43;;;25.10;91.20;;;;;;5068845;28;20040;-71
2023/05/26 11:18:00;;;;;;;17.17;8.48;;;24.50;97.10;;;;;;5068804;28;20029;-71
2023/05/26 11:20:26;;;;;;;16.53;8.90;;;24.40;95.40;;;;;;5067969;28;20048;-72
2023/05/26 11:22:52;;;;;;;19.55;8.90;;;24.60;98.40;;;;;;5068656;28;20306;-72
2023/05/26 11:25:18;;;;;;;15.07;8.15;;;24.90;96.60;;;;;;5067214;28;20043;-73
2023/05/26 11:27:46;;;;;;;16.75;8.40;;;25.00;96.60;;;;;;5068221;28;20025;-71
2023/05/26 11:30:12;;;;;;;20.95;8.82;;;25.10;94.60;;;;;;5068650;28;20032;-71
2023/05/26 11:32:47;;;;;;;17.05;8.05;;;25.50;93.90;;;;;;5067818;28;20035;-71
2023/05/26 11:35:23;;;;;;;16.73;8.35;;;25.70;93.50;;;;;;5068382;28;20512;-71
2023/05/26 11:37:49;;;;;;;21.50;7.88;;;25.80;90.70;;;;;;5068925;28;20123;-71
2023/05/26 11:40:14;;;;;;;18.45;7.97;;;25.50;91.00;;;;;;5067249;28;20111;-71
2023/05/26 11:42:44;;;;;;;17.75;8.93;;;25.00;91.50;;;;;;5067707;28;20017;-71
2023/05/26 11:45:10;;;;;;;19.23;8.85;;;24.80;92.90;;;;;;5068708;28;20033;-71
2023/05/26 11:47:36;;;;;;;22.73;7.55;;;24.80;92.00;;;;;;5067440;28;20037;-71
2023/05/26 11:50:11;;;;;;;15.80;8.68;;;25.00;92.90;;;;;;5068301;28;20021;-71
2023/05/26 11:52:47;;;;;;;18.63;8.48;;;25.00;91.40;;;;;;5067572;28;20021;-71
2023/05/26 11:55:19;;;;;;;18.08;8.68;;;25.40;94.50;;;;;;5068368;28;20114;-71
2023/05/26 11:57:46;;;;;;;17.88;8.82;;;25.50;92.90;;;;;;5068068;28;20040;-71
2023/05/26 12:00:14;;;;;;;28.80;8.25;;;25.90;96.10;;;;;;5068224;28;20032;-71
2023/05/26 12:02:40;;;;;;;23.13;8.73;;;26.10;92.30;;;;;;5067508;28;20053;-71
2023/05/26 12:05:19;;;;;;;18.55;8.60;;;25.80;92.20;;;;;;5068210;28;20058;-71
2023/05/26 12:07:46;;;;;;;17.73;8.85;;;25.10;91.40;;;;;;5066130;28;20893;-71
2023/05/26 12:10:11;;;;;;;16.17;8.50;;;24.50;94.60;;;;;;5068217;28;20044;-71
2023/05/26 12:12:50;;;;;;;16.90;8.90;;;24.40;95.60;;;;;;5067242;28;20032;-71
2023/05/26 12:15:20;;;;;;;20.75;8.88;;;24.80;96.50;;;;;;5066780;28;20064;-71
2023/05/26 12:17:47;;;;;;;15.30;8.70;;;25.20;90.60;;;;;;5067753;28;20029;-71
2023/05/26 12:20:20;;;;;;;15.85;8.65;;;25.20;91.20;;;;;;5068158;28;20158;-71
2023/05/26 12:23:01;;;;;;;19.60;8.75;;;25.70;93.40;;;;;;5067227;28;20046;-71
2023/05/26 12:25:29;;;;;;;20.48;8.82;;;25.30;90.60;;;;;;5067351;28;20074;-72
2023/05/26 12:27:55;;;;;;;17.95;8.43;;;24.70;92.90;;;;;;5068035;28;20028;-73
2023/05/26 12:30:27;;;;;;;13.75;8.68;;;24.50;94.00;;;;;;5067846;28;20037;-71
2023/05/26 12:32:53;;;;;;;18.27;9.30;;;24.30;93.80;;;;;;5068893;28;20044;-72
2023/05/26 12:35:19;;;;;;;14.00;7.93;;;24.10;96.10;;;;;;5071626;28;20078;-71
2023/05/26 12:37:44;;;;;;;14.88;8.45;;;23.80;93.00;;;;;;5070915;28;20217;-71
2023/05/26 12:40:11;;;;;;;14.98;8.35;;;23.70;95.70;;;;;;5071964;28;20112;-71